createdAt,value
2022-08-10T00:00:16.625Z,12.50
2022-08-10T00:03:37.835Z,13.00
2022-08-10T00:06:40.261Z,12.00
2022-08-10T00:09:50.626Z,14.00
2022-08-10T00:12:55.353Z,10.25
2022-08-10T00:15:57.725Z,13.00
2022-08-10T00:19:00.487Z,16.50
2022-08-10T00:22:02.595Z,11.75
2022-08-10T00:25:05.911Z,16.25
2022-08-10T00:28:08.531Z,13.75
2022-08-10T00:31:10.906Z,10.50
2022-08-10T00:34:13.171Z,11.75
2022-08-10T00:37:17.383Z,10.75
2022-08-10T00:40:19.624Z,11.50
2022-08-10T00:43:40.549Z,7.25
2022-08-10T00:46:42.653Z,12.00
2022-08-10T00:49:45.120Z,12.25
2022-08-10T00:52:47.610Z,13.00
2022-08-10T00:57:14.520Z,11.25
2022-08-10T00:59:11.982Z,13.00
2022-08-10T01:02:14.402Z,10.50
2022-08-10T01:05:16.643Z,11.25
2022-08-10T01:08:30.543Z,10.00
2022-08-10T01:12:34.236Z,13.00
2022-08-10T01:15:08.718Z,12.00
2022-08-10T01:18:29.629Z,11.50
2022-08-10T01:22:09.354Z,12.25
2022-08-10T01:25:11.680Z,9.75
2022-08-10T01:28:51.700Z,12.50
2022-08-10T01:31:57.053Z,13.00
2022-08-10T01:35:11.001Z,11.00
2022-08-10T01:38:40.803Z,12.00
2022-08-10T01:41:46.595Z,12.00
2022-08-10T01:44:56.011Z,12.50
2022-08-10T01:48:18.902Z,8.00
2022-08-10T01:51:32.740Z,11.25
2022-08-10T01:54:35.532Z,12.00
2022-08-10T01:57:39.374Z,12.75
2022-08-10T02:00:43.361Z,12.00
2022-08-10T02:04:03.684Z,11.50
2022-08-10T02:07:11.328Z,14.50
2022-08-10T02:10:15.519Z,9.25
2022-08-10T02:13:19.085Z,12.00
2022-08-10T02:16:21.745Z,10.00
2022-08-10T02:19:25.229Z,9.50
2022-08-10T02:22:45.897Z,9.25
2022-08-10T02:25:49.735Z,10.25
2022-08-10T02:28:52.865Z,11.00
2022-08-10T02:31:56.407Z,13.00
2022-08-10T02:35:00.718Z,10.75
2022-08-10T02:38:06.605Z,13.25
2022-08-10T02:45:02.830Z,10.75
2022-08-10T02:45:21.566Z,11.00
2022-08-10T02:48:24.348Z,12.00
2022-08-10T02:52:07.022Z,10.00
2022-08-10T02:55:27.272Z,8.50
2022-08-10T02:58:42.489Z,8.00
2022-08-10T03:01:49.444Z,10.00
2022-08-10T03:04:58.378Z,9.00
2022-08-10T03:08:03.488Z,12.75
2022-08-10T03:11:06.750Z,11.75
2022-08-10T03:14:10.187Z,11.50
2022-08-10T03:17:12.879Z,12.00
2022-08-10T03:20:37.309Z,8.75
2022-08-10T03:23:38.423Z,10.75
2022-08-10T03:26:40.937Z,9.75
2022-08-10T03:30:31.929Z,12.00
2022-08-10T03:33:07.808Z,13.00
2022-08-10T03:36:40.744Z,12.25
2022-08-10T03:39:32.913Z,11.50
2022-08-10T03:42:37.525Z,12.50
2022-08-10T03:45:55.470Z,10.00
2022-08-10T03:49:02.184Z,9.00
2022-08-10T03:52:06.648Z,10.75
2022-08-10T03:55:09.753Z,11.75
2022-08-10T03:58:12.502Z,6.25
2022-08-10T04:01:15.923Z,11.75
2022-08-10T04:04:23.762Z,10.50
2022-08-10T04:07:26.961Z,9.50
2022-08-10T04:10:29.693Z,9.75
2022-08-10T04:13:32.105Z,12.75
2022-08-10T04:16:34.297Z,9.75
2022-08-10T04:19:46.829Z,14.50
2022-08-10T04:22:51.945Z,9.75
2022-08-10T04:25:54.441Z,11.00
2022-08-10T04:28:56.611Z,8.00
2022-08-10T04:31:59.885Z,11.50
2022-08-10T04:35:04.280Z,12.00
2022-08-10T04:38:07.429Z,11.50
2022-08-10T04:41:10.277Z,7.25
2022-08-10T04:44:12.764Z,11.00
2022-08-10T04:47:16.893Z,9.75
2022-08-10T04:50:37.484Z,9.75
2022-08-10T04:54:04.596Z,9.75
2022-08-10T04:57:03.341Z,9.00
2022-08-10T05:00:08.752Z,13.50
2022-08-10T05:03:21.716Z,11.50
2022-08-10T05:06:25.236Z,13.25
2022-08-10T05:09:27.537Z,9.75
2022-08-10T05:12:29.809Z,8.75
2022-08-10T05:15:32.184Z,10.00
2022-08-10T05:18:34.721Z,12.50
2022-08-10T05:21:56.406Z,11.25
2022-08-10T05:24:59.944Z,9.25
2022-08-10T05:28:06.510Z,12.00
2022-08-10T05:31:09.057Z,9.75
2022-08-10T05:34:20.549Z,12.50
2022-08-10T05:38:08.963Z,11.25
2022-08-10T05:40:48.542Z,10.00
2022-08-10T05:43:51.921Z,10.50
2022-08-10T05:46:54.252Z,11.25
2022-08-10T05:49:56.730Z,12.75
2022-08-10T05:53:02.591Z,11.75
2022-08-10T05:56:21.511Z,10.50
2022-08-10T06:00:29.387Z,10.00
2022-08-10T06:02:54.900Z,10.25
2022-08-10T06:05:58.778Z,10.50
2022-08-10T06:09:01.457Z,9.00
2022-08-10T06:12:27.859Z,10.00
2022-08-10T06:15:50.274Z,9.50
2022-08-10T06:18:51.367Z,9.50
2022-08-10T06:22:01.344Z,8.25
2022-08-10T06:28:28.956Z,7.00
2022-08-10T06:31:48.548Z,9.33
2022-08-10T06:34:55.036Z,9.00
2022-08-10T06:37:59.781Z,11.00
2022-08-10T06:41:08.392Z,7.33
2022-08-10T06:44:16.572Z,9.00
2022-08-10T06:47:22.917Z,8.00
2022-08-10T06:50:55.899Z,7.67
2022-08-10T06:54:07.933Z,7.00
2022-08-10T06:57:18.854Z,6.00
2022-08-10T07:00:21.218Z,8.33
2022-08-10T07:03:34.419Z,7.00
2022-08-10T07:06:37.524Z,6.00
2022-08-10T07:09:40.324Z,7.33
2022-08-10T07:12:43.603Z,7.00
2022-08-10T07:15:59.797Z,6.33
2022-08-10T07:19:03.569Z,7.00
2022-08-10T07:22:06.718Z,6.00
2022-08-10T07:25:10.275Z,7.67
2022-08-10T07:28:13.892Z,6.00
2022-08-10T07:31:55.040Z,4.33
2022-08-10T07:34:41.695Z,6.00
2022-08-10T07:37:49.506Z,5.67
2022-08-10T07:40:53.644Z,5.33
2022-08-10T07:43:57.285Z,4.33
2022-08-10T07:47:03.008Z,3.67
2022-08-10T07:50:08.350Z,3.67
2022-08-10T07:53:13.877Z,4.00
2022-08-10T07:56:45.479Z,6.00
2022-08-10T07:59:45.077Z,3.67
2022-08-10T08:02:56.044Z,4.67
2022-08-10T08:06:03.282Z,4.33
2022-08-10T08:09:11.772Z,6.00
2022-08-10T08:12:15.864Z,5.00
2022-08-10T08:16:20.344Z,3.67
2022-08-10T08:19:03.916Z,6.00
2022-08-10T08:24:04.410Z,3.33
2022-08-10T08:25:30.749Z,5.00
2022-08-10T08:28:34.548Z,4.00
2022-08-10T08:32:01.168Z,4.67
2022-08-10T08:35:06.688Z,5.00
2022-08-10T08:38:34.012Z,4.33
2022-08-10T08:41:50.565Z,5.67
2022-08-10T08:45:15.408Z,5.33
2022-08-10T08:48:20.774Z,4.33
2022-08-10T08:52:09.893Z,4.67
2022-08-10T08:56:03.921Z,4.00
2022-08-10T08:59:00.881Z,4.00
2022-08-10T09:02:21.512Z,4.33
2022-08-10T09:05:58.454Z,3.00
2022-08-10T09:09:15.642Z,4.67
2022-08-10T09:12:49.063Z,7.00
2022-08-10T09:16:13.993Z,5.00
2022-08-10T09:19:38.619Z,4.67
2022-08-10T09:22:47.435Z,3.67
2022-08-10T09:25:56.080Z,3.67
2022-08-10T09:29:12.354Z,4.00
2022-08-10T09:36:13.860Z,3.00
2022-08-10T09:36:21.608Z,4.67
2022-08-10T09:40:56.067Z,5.00
2022-08-10T09:43:32.156Z,2.33
2022-08-10T09:46:59.408Z,2.67
2022-08-10T09:50:10.056Z,3.67
2022-08-10T09:53:40.519Z,4.67
2022-08-10T09:57:41.226Z,5.67
2022-08-10T10:00:46.970Z,3.67
2022-08-10T10:04:34.316Z,3.67
2022-08-10T10:07:40.450Z,4.00
2022-08-10T10:11:08.917Z,3.67
2022-08-10T10:14:17.078Z,2.67
2022-08-10T10:17:27.103Z,3.33
2022-08-10T10:20:44.826Z,2.00
2022-08-10T10:24:21.619Z,2.25
2022-08-10T10:27:48.210Z,4.00
2022-08-10T10:31:32.733Z,4.00
2022-08-10T10:34:46.495Z,2.00
2022-08-10T10:38:01.151Z,2.33
2022-08-10T10:42:03.327Z,2.00
2022-08-10T10:45:18.643Z,3.00
2022-08-10T10:48:33.063Z,2.00
2022-08-10T10:51:45.491Z,2.50
2022-08-10T10:54:55.851Z,4.00
2022-08-10T10:58:20.321Z,2.75
2022-08-10T11:01:44.729Z,2.00
2022-08-10T11:05:29.197Z,2.00
2022-08-10T11:08:38.635Z,1.50
2022-08-10T11:12:00.669Z,1.00
2022-08-10T11:15:28.872Z,1.25
2022-08-10T11:19:08.739Z,1.75
2022-08-10T11:22:30.758Z,3.00
2022-08-10T11:25:43.007Z,1.25
2022-08-10T11:28:51.985Z,2.00
2022-08-10T11:32:28.819Z,1.75
2022-08-10T11:35:48.775Z,0.25
2022-08-10T11:39:13.433Z,1.00
2022-08-10T11:42:42.795Z,1.00
2022-08-10T11:46:07.677Z,2.00
2022-08-10T11:49:22.115Z,2.00
2022-08-10T11:52:52.441Z,0.00
2022-08-10T11:55:57.376Z,2.00
2022-08-10T11:59:18.332Z,2.00
2022-08-10T12:02:37.456Z,3.00
2022-08-10T12:05:51.955Z,1.25
2022-08-10T12:10:11.122Z,2.00
2022-08-10T12:12:21.028Z,2.25
2022-08-10T12:15:29.830Z,3.00
2022-08-10T12:18:50.714Z,2.00
2022-08-10T12:22:05.661Z,3.33
2022-08-10T12:25:54.919Z,2.25
2022-08-10T12:29:03.732Z,2.75
2022-08-10T12:32:25.486Z,3.00
2022-08-10T12:35:33.242Z,3.00
2022-08-10T12:38:40.156Z,1.00
2022-08-10T12:41:50.533Z,1.25
2022-08-10T12:45:03.148Z,1.00
2022-08-10T12:48:15.095Z,1.00
2022-08-10T12:51:38.849Z,0.00
2022-08-10T12:54:50.782Z,1.00
2022-08-10T12:57:56.005Z,1.00
2022-08-10T13:01:17.773Z,0.25
2022-08-10T13:04:28.068Z,0.00
2022-08-10T13:08:24.933Z,1.00
2022-08-10T13:11:02.224Z,1.00
2022-08-10T13:14:11.078Z,1.75
2022-08-10T13:17:19.788Z,0.00
2022-08-10T13:20:30.419Z,1.00
2022-08-10T13:23:38.442Z,0.00
2022-08-10T13:27:26.057Z,2.00
2022-08-10T13:30:13.503Z,0.50
2022-08-10T13:34:35.827Z,1.00
2022-08-10T13:36:42.193Z,1.00
2022-08-10T13:39:58.829Z,1.50
2022-08-10T13:43:06.997Z,2.50
2022-08-10T13:46:22.661Z,3.00
2022-08-10T13:49:29.622Z,2.00
2022-08-10T13:52:33.462Z,3.50
2022-08-10T13:55:54.538Z,3.00
2022-08-10T13:58:59.320Z,2.25
2022-08-10T14:02:03.385Z,3.00
2022-08-10T14:05:07.428Z,3.00
2022-08-10T14:08:15.177Z,2.67
2022-08-10T14:11:19.109Z,2.00
2022-08-10T14:14:22.294Z,2.67
2022-08-10T14:17:25.980Z,2.67
2022-08-10T14:20:29.306Z,2.33
2022-08-10T14:23:32.364Z,2.00
2022-08-10T14:26:34.628Z,2.00
2022-08-10T14:29:43.494Z,3.00
2022-08-10T14:32:48.510Z,2.00
2022-08-10T14:36:19.217Z,3.33
2022-08-10T14:39:25.997Z,3.00
2022-08-10T14:42:32.459Z,2.33
2022-08-10T14:45:36.628Z,3.33
2022-08-10T14:48:45.348Z,4.00
2022-08-10T14:51:50.110Z,3.33
2022-08-10T14:54:55.182Z,3.67
2022-08-10T14:58:19.336Z,2.67
2022-08-10T15:01:21.996Z,2.33
2022-08-10T15:04:26.810Z,3.67
2022-08-10T15:07:33.396Z,3.33
2022-08-10T15:10:36.346Z,2.67
2022-08-10T15:13:44.680Z,3.00
2022-08-10T15:17:08.452Z,2.00
2022-08-10T15:20:20.686Z,3.00
2022-08-10T15:23:30.724Z,4.00
2022-08-10T15:26:35.847Z,3.00
2022-08-10T15:29:57.711Z,2.00
2022-08-10T15:34:02.579Z,2.00
2022-08-10T15:37:39.966Z,2.33
2022-08-10T15:40:35.830Z,2.00
2022-08-10T15:43:44.514Z,3.75
2022-08-10T15:46:53.166Z,2.00
2022-08-10T15:50:07.766Z,3.25
2022-08-10T15:53:16.462Z,3.00
2022-08-10T15:56:28.347Z,4.00
2022-08-10T16:00:08.979Z,2.00
2022-08-10T16:03:17.363Z,3.00
2022-08-10T16:06:28.481Z,2.67
2022-08-10T16:10:23.093Z,3.00
2022-08-10T16:13:59.787Z,4.67
2022-08-10T16:16:36.306Z,4.00
2022-08-10T16:19:50.136Z,4.00
2022-08-10T16:22:56.203Z,5.00
2022-08-10T16:26:05.108Z,3.33
2022-08-10T16:29:20.538Z,4.00
2022-08-10T16:32:23.580Z,3.00
2022-08-10T16:35:25.762Z,4.00
2022-08-10T16:38:28.625Z,3.00
2022-08-10T16:42:02.882Z,4.00
2022-08-10T16:45:02.821Z,5.00
2022-08-10T16:48:06.726Z,4.00
2022-08-10T16:51:14.111Z,2.00
2022-08-10T16:54:26.286Z,3.33
2022-08-10T16:57:30.062Z,3.67
2022-08-10T17:00:32.833Z,3.00
2022-08-10T17:04:06.172Z,5.33
2022-08-10T17:07:08.191Z,4.00
2022-08-10T17:10:15.183Z,3.00
2022-08-10T17:13:21.184Z,3.00
2022-08-10T17:16:24.550Z,3.33
2022-08-10T17:19:27.819Z,5.00
2022-08-10T17:22:35.574Z,3.00
2022-08-10T17:25:48.586Z,3.00
2022-08-10T17:28:56.194Z,4.67
2022-08-10T17:32:01.091Z,5.00
2022-08-10T17:35:09.278Z,4.67
2022-08-10T17:38:24.271Z,3.00
2022-08-10T17:41:32.726Z,3.33
2022-08-10T17:44:36.842Z,4.00
2022-08-10T17:47:57.933Z,4.00
2022-08-10T17:51:00.750Z,3.67
2022-08-10T17:54:09.149Z,6.67
2022-08-10T17:57:18.588Z,4.00
2022-08-10T18:00:22.278Z,4.00
2022-08-10T18:03:27.855Z,5.00
2022-08-10T18:06:30.752Z,4.00
2022-08-10T18:09:46.519Z,3.67
2022-08-10T18:12:54.580Z,4.00
2022-08-10T18:15:57.239Z,4.00
2022-08-10T18:19:07.680Z,5.00
2022-08-10T18:22:12.129Z,5.00
2022-08-10T18:25:20.494Z,4.33
2022-08-10T18:28:22.640Z,5.00
2022-08-10T18:31:25.804Z,4.00
2022-08-10T18:34:30.418Z,5.33
2022-08-10T18:37:33.539Z,5.00
2022-08-10T18:40:38.541Z,5.00
2022-08-10T18:44:07.145Z,5.00
2022-08-10T18:47:30.533Z,6.67
2022-08-10T18:50:37.761Z,5.00
2022-08-10T18:53:48.624Z,3.33
2022-08-10T18:56:59.361Z,4.00
2022-08-10T19:00:08.799Z,5.67
2022-08-10T19:03:26.993Z,5.00
2022-08-10T19:06:51.194Z,5.00
2022-08-10T19:10:12.212Z,5.00
2022-08-10T19:13:34.406Z,5.00
2022-08-10T19:16:58.722Z,6.00
2022-08-10T19:20:13.072Z,5.33
2022-08-10T19:23:52.839Z,6.67
2022-08-10T19:27:08.595Z,4.00
2022-08-10T19:30:16.251Z,5.00
2022-08-10T19:33:42.703Z,4.33
2022-08-10T19:37:05.345Z,6.00
2022-08-10T19:40:44.434Z,6.00
2022-08-10T19:44:03.666Z,5.25
2022-08-10T19:47:12.283Z,5.00
2022-08-10T19:50:19.644Z,6.00
2022-08-10T19:53:46.502Z,7.00
2022-08-10T19:57:04.280Z,4.75
2022-08-10T20:00:18.491Z,5.25
2022-08-10T20:03:34.490Z,5.75
2022-08-10T20:06:48.237Z,4.00
2022-08-10T20:10:00.756Z,6.75
2022-08-10T20:13:10.836Z,5.50
2022-08-10T20:16:22.975Z,5.50
2022-08-10T20:20:06.589Z,6.25
2022-08-10T20:23:14.218Z,5.75
2022-08-10T20:26:33.336Z,7.00
2022-08-10T20:29:57.299Z,6.00
2022-08-10T20:33:28.397Z,6.00
2022-08-10T20:36:31.876Z,7.75
2022-08-10T20:39:39.389Z,7.75
2022-08-10T20:42:50.409Z,8.00
2022-08-10T20:46:15.203Z,8.25
2022-08-10T20:49:39.754Z,6.00
2022-08-10T20:52:44.278Z,6.25
2022-08-10T20:55:55.823Z,9.25
2022-08-10T20:59:08.732Z,6.25
2022-08-10T21:02:29.812Z,7.50
2022-08-10T21:06:09.153Z,7.25
2022-08-10T21:09:37.443Z,6.50
2022-08-10T21:12:49.953Z,7.25
2022-08-10T21:15:52.691Z,7.00
2022-08-10T21:19:27.789Z,8.50
2022-08-10T21:22:42.448Z,7.00
2022-08-10T21:26:07.432Z,6.25
2022-08-10T21:29:41.591Z,10.00
2022-08-10T21:33:21.014Z,11.50
2022-08-10T21:36:32.293Z,7.25
2022-08-10T21:39:58.279Z,8.00
2022-08-10T21:43:44.815Z,11.00
2022-08-10T21:47:39.997Z,9.00
2022-08-10T21:51:05.907Z,9.00
2022-08-10T21:54:35.478Z,9.25
2022-08-10T21:58:16.161Z,7.25
2022-08-10T22:01:51.649Z,8.25
2022-08-10T22:05:17.951Z,8.25
2022-08-10T22:08:51.914Z,8.00
2022-08-10T22:12:24.974Z,8.50
2022-08-10T22:16:10.873Z,9.25
2022-08-10T22:19:34.256Z,9.00
2022-08-10T22:23:03.404Z,9.00
2022-08-10T22:27:01.227Z,7.00
2022-08-10T22:30:23.649Z,8.25
2022-08-10T22:34:09.756Z,10.00
2022-08-10T22:38:10.554Z,9.25
2022-08-10T22:41:56.571Z,9.25
2022-08-10T22:45:19.531Z,7.75
2022-08-10T22:48:40.730Z,8.50
2022-08-10T22:52:01.268Z,8.25
2022-08-10T22:55:28.112Z,9.00
2022-08-10T22:58:42.083Z,7.50
2022-08-10T23:02:07.936Z,8.25
2022-08-10T23:05:13.561Z,9.00
2022-08-10T23:08:30.211Z,9.75
2022-08-10T23:11:36.982Z,8.00
2022-08-10T23:14:41.533Z,9.00
2022-08-10T23:18:23.024Z,9.50
2022-08-10T23:22:00.067Z,9.25
2022-08-10T23:25:09.839Z,7.25
2022-08-10T23:28:14.662Z,8.50
2022-08-10T23:32:01.170Z,7.00
2022-08-10T23:34:46.224Z,9.00
2022-08-10T23:38:09.935Z,9.50
2022-08-10T23:41:12.708Z,8.50
2022-08-10T23:44:21.048Z,9.00
2022-08-10T23:47:28.128Z,9.50
2022-08-10T23:50:32.471Z,10.00
2022-08-10T23:53:39.057Z,7.25
2022-08-10T23:56:47.780Z,9.00
2022-08-10T23:59:53.408Z,11.00
